createdAt,value
2023-04-30T00:00:12.146Z,15.00
2023-04-30T00:03:23.988Z,14.00
2023-04-30T00:06:07.125Z,14.60
2023-04-30T00:08:56.696Z,12.80
2023-04-30T00:14:33.732Z,13.00
2023-04-30T00:17:24.137Z,13.60
2023-04-30T00:20:15.621Z,13.20
2023-04-30T00:23:04.911Z,13.20
2023-04-30T00:25:54.107Z,13.00
2023-04-30T00:28:43.465Z,13.70
2023-04-30T00:31:32.963Z,13.70
2023-04-30T00:34:24.462Z,13.40
2023-04-30T00:37:13.434Z,13.70
2023-04-30T00:40:03.277Z,13.90
2023-04-30T00:42:55.206Z,13.80
2023-04-30T00:45:44.800Z,14.60
2023-04-30T00:48:34.942Z,14.30
2023-04-30T00:51:26.560Z,14.10
2023-04-30T00:54:16.622Z,12.70
2023-04-30T00:59:57.025Z,13.60
2023-04-30T01:02:47.422Z,10.90
2023-04-30T01:05:36.816Z,12.30
2023-04-30T01:08:26.667Z,12.30
2023-04-30T01:11:29.018Z,12.70
2023-04-30T01:14:27.667Z,11.20
2023-04-30T01:17:23.768Z,11.50
2023-04-30T01:20:15.346Z,12.60
2023-04-30T01:23:34.592Z,11.70
2023-04-30T01:26:46.139Z,11.30
2023-04-30T01:29:36.818Z,11.40
2023-04-30T01:32:26.827Z,12.90
2023-04-30T01:35:16.803Z,12.40
2023-04-30T01:38:16.108Z,12.00
2023-04-30T01:44:12.870Z,11.90
2023-04-30T01:47:07.502Z,12.30
2023-04-30T01:50:10.591Z,11.80
2023-04-30T01:53:02.594Z,11.30
2023-04-30T01:55:59.841Z,12.60
2023-04-30T01:58:54.297Z,9.00
2023-04-30T02:01:44.227Z,12.50
2023-04-30T02:04:34.326Z,12.70
2023-04-30T02:07:38.063Z,13.00
2023-04-30T02:10:29.802Z,13.40
2023-04-30T02:13:19.506Z,13.20
2023-04-30T02:16:09.295Z,11.50
2023-04-30T02:18:58.753Z,11.00
2023-04-30T02:21:47.863Z,10.50
2023-04-30T02:24:37.735Z,10.20
2023-04-30T02:27:30.460Z,10.50
2023-04-30T02:30:20.451Z,10.50
2023-04-30T02:33:11.890Z,10.80
2023-04-30T02:36:01.504Z,9.20
2023-04-30T02:38:51.784Z,10.80
2023-04-30T02:41:43.117Z,9.90
2023-04-30T02:44:32.291Z,8.30
2023-04-30T02:47:21.952Z,6.30
2023-04-30T02:50:11.977Z,5.90
2023-04-30T02:53:01.395Z,8.00
2023-04-30T02:55:52.223Z,10.30
2023-04-30T02:58:41.506Z,6.30
2023-04-30T03:01:30.653Z,8.10
2023-04-30T03:04:20.061Z,9.90
2023-04-30T03:07:09.214Z,7.30
2023-04-30T03:09:58.999Z,9.10
2023-04-30T03:12:47.925Z,7.90
2023-04-30T03:15:37.770Z,6.20
2023-04-30T03:18:28.445Z,7.70
2023-04-30T03:21:18.517Z,6.70
2023-04-30T03:24:08.158Z,8.70
2023-04-30T03:26:57.887Z,7.60
2023-04-30T03:29:48.378Z,8.70
2023-04-30T03:32:38.289Z,8.30
2023-04-30T03:35:27.117Z,9.80
2023-04-30T03:38:16.667Z,6.80
2023-04-30T03:41:06.080Z,8.60
2023-04-30T03:43:55.703Z,4.50
2023-04-30T03:46:47.656Z,6.50
2023-04-30T03:49:37.158Z,7.00
2023-04-30T03:52:27.024Z,5.30
2023-04-30T03:55:08.116Z,7.60
2023-04-30T03:57:57.889Z,5.80
2023-04-30T04:00:47.828Z,6.00
2023-04-30T04:03:37.151Z,7.50
2023-04-30T04:06:27.224Z,6.20
2023-04-30T04:09:16.795Z,6.00
2023-04-30T04:12:06.823Z,5.90
2023-04-30T04:14:56.231Z,6.10
2023-04-30T04:17:45.530Z,4.60
2023-04-30T04:20:36.132Z,5.60
2023-04-30T04:23:25.299Z,6.00
2023-04-30T04:26:15.966Z,5.20
2023-04-30T04:29:05.364Z,4.40
2023-04-30T04:31:55.283Z,5.60
2023-04-30T04:34:45.300Z,3.30
2023-04-30T04:37:36.021Z,6.30
2023-04-30T04:40:24.933Z,7.30
2023-04-30T04:43:14.322Z,6.60
2023-04-30T04:46:04.818Z,5.60
2023-04-30T04:48:54.628Z,7.00
2023-04-30T04:51:43.933Z,5.80
2023-04-30T04:54:34.782Z,3.70
2023-04-30T04:57:25.449Z,5.60
2023-04-30T05:00:16.614Z,4.80
2023-04-30T05:03:05.853Z,4.50
2023-04-30T05:05:58.544Z,5.50
2023-04-30T05:08:48.398Z,6.00
2023-04-30T05:11:41.533Z,6.20
2023-04-30T05:14:30.842Z,7.40
2023-04-30T05:17:20.185Z,4.90
2023-04-30T05:20:12.984Z,4.80
2023-04-30T05:23:03.874Z,5.20
2023-04-30T05:25:54.830Z,5.30
2023-04-30T05:28:45.918Z,5.80
2023-04-30T05:31:37.062Z,3.80
2023-04-30T05:34:28.082Z,4.90
2023-04-30T05:37:20.263Z,5.50
2023-04-30T05:40:11.986Z,5.70
2023-04-30T05:42:52.612Z,4.70
2023-04-30T05:45:42.276Z,5.80
2023-04-30T05:48:31.974Z,6.50
2023-04-30T05:51:23.621Z,8.10
2023-04-30T05:54:12.776Z,7.70
2023-04-30T05:57:03.979Z,8.40
2023-04-30T05:59:54.311Z,8.10
2023-04-30T06:02:40.670Z,6.20
2023-04-30T06:05:30.154Z,7.10
2023-04-30T06:08:20.086Z,8.10
2023-04-30T06:11:09.215Z,10.30
2023-04-30T06:13:59.216Z,6.20
2023-04-30T06:16:48.588Z,7.40
2023-04-30T06:19:38.217Z,11.00
2023-04-30T06:22:28.729Z,8.80
2023-04-30T06:25:18.372Z,7.80
2023-04-30T06:28:09.408Z,10.50
2023-04-30T06:30:59.057Z,10.30
2023-04-30T06:33:48.347Z,8.30
2023-04-30T06:36:37.773Z,7.70
2023-04-30T06:39:27.038Z,8.20
2023-04-30T06:42:16.193Z,9.30
2023-04-30T06:45:07.233Z,7.70
2023-04-30T06:47:57.134Z,8.30
2023-04-30T06:50:46.990Z,7.50
2023-04-30T06:53:36.235Z,6.80
2023-04-30T06:56:27.016Z,5.90
2023-04-30T06:59:17.489Z,4.40
2023-04-30T07:02:10.382Z,3.60
2023-04-30T07:04:59.871Z,4.40
2023-04-30T07:07:49.772Z,3.60
2023-04-30T07:10:40.265Z,4.00
2023-04-30T07:13:29.792Z,3.50
2023-04-30T07:16:18.984Z,3.50
2023-04-30T07:19:08.160Z,4.00
2023-04-30T07:21:57.696Z,3.60
2023-04-30T07:24:47.491Z,3.90
2023-04-30T07:27:37.904Z,3.40
2023-04-30T07:30:20.311Z,3.90
2023-04-30T07:33:10.116Z,3.00
2023-04-30T07:36:00.186Z,2.90
2023-04-30T07:38:42.596Z,1.70
2023-04-30T07:41:34.120Z,2.10
2023-04-30T07:44:24.440Z,1.90
2023-04-30T07:47:18.037Z,2.00
2023-04-30T07:50:08.890Z,2.40
2023-04-30T07:52:58.390Z,2.70
2023-04-30T07:55:47.974Z,2.10
2023-04-30T07:58:37.443Z,2.10
2023-04-30T08:01:27.726Z,1.90
2023-04-30T08:04:16.951Z,3.00
2023-04-30T08:07:07.154Z,2.50
2023-04-30T08:09:57.425Z,3.10
2023-04-30T08:12:39.065Z,3.10
2023-04-30T08:15:30.636Z,1.80
2023-04-30T08:18:20.544Z,1.20
2023-04-30T08:21:10.465Z,1.70
2023-04-30T08:23:54.060Z,2.00
2023-04-30T08:26:43.949Z,1.70
2023-04-30T08:29:33.420Z,2.00
2023-04-30T08:32:26.147Z,1.80
2023-04-30T08:35:16.906Z,2.90
2023-04-30T08:38:05.666Z,1.70
2023-04-30T08:41:05.977Z,1.80
2023-04-30T08:44:00.809Z,1.80
2023-04-30T08:49:33.560Z,1.60
2023-04-30T08:52:25.518Z,1.50
2023-04-30T08:55:16.106Z,1.30
2023-04-30T08:58:05.741Z,1.10
2023-04-30T09:00:55.047Z,1.20
2023-04-30T09:03:44.184Z,1.40
2023-04-30T09:06:33.601Z,1.50
2023-04-30T09:09:27.584Z,1.20
2023-04-30T09:12:19.399Z,1.50
2023-04-30T09:15:11.920Z,1.40
2023-04-30T09:18:12.147Z,1.70
2023-04-30T09:21:02.594Z,2.20
2023-04-30T09:24:02.286Z,1.40
2023-04-30T09:26:54.707Z,2.20
2023-04-30T09:29:45.548Z,1.80
2023-04-30T09:32:34.817Z,1.70
2023-04-30T09:35:30.782Z,1.00
2023-04-30T09:38:31.291Z,1.60
2023-04-30T09:41:26.191Z,2.00
2023-04-30T09:44:31.813Z,1.40
2023-04-30T09:47:21.559Z,1.80
2023-04-30T09:50:14.448Z,1.90
2023-04-30T09:53:08.244Z,1.70
2023-04-30T09:56:02.760Z,2.00
2023-04-30T09:58:53.834Z,2.10
2023-04-30T10:01:44.222Z,2.40
2023-04-30T10:04:35.967Z,2.20
2023-04-30T10:07:31.358Z,2.20
2023-04-30T10:10:22.252Z,2.20
2023-04-30T10:13:14.619Z,1.80
2023-04-30T10:16:12.296Z,2.50
2023-04-30T10:18:58.274Z,2.50
2023-04-30T10:21:47.954Z,2.10
2023-04-30T10:24:37.909Z,1.80
2023-04-30T10:27:29.151Z,1.50
2023-04-30T10:30:18.907Z,1.80
2023-04-30T10:33:19.813Z,1.40
2023-04-30T10:36:14.758Z,1.40
2023-04-30T10:38:58.315Z,1.00
2023-04-30T10:41:48.872Z,1.10
2023-04-30T10:44:39.381Z,1.50
2023-04-30T10:47:30.462Z,1.20
2023-04-30T10:50:24.147Z,1.50
2023-04-30T10:53:17.737Z,1.40
2023-04-30T10:56:08.502Z,1.30
2023-04-30T10:59:01.659Z,1.60
2023-04-30T11:01:58.496Z,1.50
2023-04-30T11:05:11.212Z,1.50
2023-04-30T11:08:00.890Z,1.20
2023-04-30T11:11:01.097Z,1.50
2023-04-30T11:14:01.011Z,1.60
2023-04-30T11:16:53.392Z,1.30
2023-04-30T11:19:50.064Z,1.20
2023-04-30T11:22:39.446Z,1.20
2023-04-30T11:25:48.192Z,1.90
2023-04-30T11:28:38.746Z,1.60
2023-04-30T11:31:37.299Z,1.90
2023-04-30T11:34:27.252Z,1.60
2023-04-30T11:37:21.254Z,1.70
2023-04-30T11:40:12.134Z,1.50
2023-04-30T11:43:01.097Z,1.60
2023-04-30T11:46:01.479Z,1.50
2023-04-30T11:48:50.789Z,1.50
2023-04-30T11:51:42.120Z,1.50
2023-04-30T11:54:34.658Z,1.50
2023-04-30T11:57:25.377Z,1.50
2023-04-30T12:00:16.936Z,1.90
2023-04-30T12:03:07.179Z,1.70
2023-04-30T12:05:57.070Z,1.30
2023-04-30T12:08:46.235Z,1.20
2023-04-30T12:11:29.960Z,1.60
2023-04-30T12:14:19.079Z,1.20
2023-04-30T12:17:08.329Z,1.50
2023-04-30T12:19:57.977Z,1.50
2023-04-30T12:22:47.799Z,1.80
2023-04-30T12:25:42.490Z,1.70
2023-04-30T12:28:31.463Z,1.30
2023-04-30T12:31:21.225Z,1.40
2023-04-30T12:34:12.343Z,1.30
2023-04-30T12:37:02.813Z,1.30
2023-04-30T12:39:55.503Z,1.80
2023-04-30T12:42:46.463Z,1.10
2023-04-30T12:45:51.010Z,1.20
2023-04-30T12:48:45.445Z,1.20
2023-04-30T12:51:36.121Z,1.30
2023-04-30T12:54:29.246Z,1.30
2023-04-30T12:57:18.036Z,1.50
2023-04-30T13:00:09.937Z,1.10
2023-04-30T13:02:59.182Z,1.60
2023-04-30T13:05:49.586Z,1.10
2023-04-30T13:08:49.692Z,1.30
2023-04-30T13:14:17.237Z,0.90
2023-04-30T13:17:09.125Z,1.10
2023-04-30T13:19:58.016Z,1.40
2023-04-30T13:22:46.888Z,1.20
2023-04-30T13:25:36.231Z,1.00
2023-04-30T13:28:25.752Z,1.30
2023-04-30T13:31:14.755Z,1.50
2023-04-30T13:34:04.445Z,0.90
2023-04-30T13:36:53.710Z,1.10
2023-04-30T13:39:45.292Z,1.30
2023-04-30T13:42:38.758Z,1.00
2023-04-30T13:45:27.774Z,1.00
2023-04-30T13:48:17.026Z,1.00
2023-04-30T13:51:08.664Z,1.00
2023-04-30T13:53:47.492Z,0.90
2023-04-30T13:56:37.897Z,1.00
2023-04-30T13:59:28.263Z,0.80
2023-04-30T14:02:18.458Z,0.90
2023-04-30T14:05:09.474Z,0.80
2023-04-30T14:07:53.926Z,1.00
2023-04-30T14:10:42.917Z,1.10
2023-04-30T14:13:31.820Z,0.70
2023-04-30T14:16:21.847Z,0.80
2023-04-30T14:19:11.376Z,0.60
2023-04-30T14:22:01.736Z,0.80
2023-04-30T14:24:53.219Z,0.80
2023-04-30T14:27:32.696Z,0.70
2023-04-30T14:30:22.211Z,0.70
2023-04-30T14:33:12.257Z,0.80
2023-04-30T14:36:01.597Z,0.80
2023-04-30T14:38:50.800Z,0.70
2023-04-30T14:44:27.614Z,0.60
2023-04-30T14:47:17.380Z,0.80
2023-04-30T14:50:07.398Z,0.70
2023-04-30T14:52:56.646Z,0.50
2023-04-30T14:55:45.513Z,0.70
2023-04-30T14:58:34.431Z,0.70
2023-04-30T15:01:22.386Z,0.70
2023-04-30T15:04:11.440Z,0.80
2023-04-30T15:07:02.135Z,0.70
2023-04-30T15:09:53.088Z,0.70
2023-04-30T15:12:43.065Z,0.50
2023-04-30T15:15:32.260Z,0.70
2023-04-30T15:18:21.310Z,0.80
2023-04-30T15:21:04.382Z,0.70
2023-04-30T15:23:54.701Z,0.70
2023-04-30T15:26:45.687Z,0.70
2023-04-30T15:29:34.523Z,0.70
2023-04-30T15:32:25.071Z,0.60
2023-04-30T15:35:14.724Z,0.70
2023-04-30T15:38:03.924Z,0.90
2023-04-30T15:40:55.536Z,9.00
2023-04-30T15:43:44.532Z,1.40
2023-04-30T15:46:35.858Z,0.70
2023-04-30T15:49:27.353Z,0.60
2023-04-30T15:52:17.143Z,0.60
2023-04-30T15:55:09.056Z,7.10
2023-04-30T15:57:57.887Z,0.90
2023-04-30T16:00:47.072Z,0.70
2023-04-30T16:03:37.364Z,0.70
2023-04-30T16:06:29.415Z,0.70
2023-04-30T16:09:11.897Z,2.80
2023-04-30T16:12:00.810Z,1.90
2023-04-30T16:14:51.112Z,0.80
2023-04-30T16:17:42.594Z,0.70
2023-04-30T16:20:31.961Z,0.70
2023-04-30T16:23:21.923Z,0.80
2023-04-30T16:26:10.954Z,0.90
2023-04-30T16:29:00.253Z,0.90
2023-04-30T16:31:49.146Z,0.90
2023-04-30T16:34:39.417Z,0.60
2023-04-30T16:37:29.021Z,0.60
2023-04-30T16:40:19.218Z,0.60
2023-04-30T16:43:12.302Z,0.90
2023-04-30T16:46:00.532Z,0.60
2023-04-30T16:48:49.509Z,0.70
2023-04-30T16:51:41.407Z,1.10
2023-04-30T16:54:30.324Z,2.30
2023-04-30T16:57:18.019Z,1.10
2023-04-30T17:00:10.879Z,0.90
2023-04-30T17:03:00.354Z,0.80
2023-04-30T17:05:48.761Z,1.10
2023-04-30T17:08:40.010Z,2.60
2023-04-30T17:11:29.540Z,3.50
2023-04-30T17:14:18.549Z,5.40
2023-04-30T17:17:07.769Z,4.70
2023-04-30T17:19:57.108Z,3.50
2023-04-30T17:22:46.912Z,2.20
2023-04-30T17:25:37.576Z,2.50
2023-04-30T17:28:27.117Z,1.30
2023-04-30T17:31:15.892Z,1.30
2023-04-30T17:34:04.033Z,1.30
2023-04-30T17:36:52.593Z,1.00
2023-04-30T17:39:40.042Z,1.50
2023-04-30T17:42:31.409Z,1.00
2023-04-30T17:45:20.775Z,1.00
2023-04-30T17:48:10.182Z,1.10
2023-04-30T17:51:00.340Z,1.00
2023-04-30T17:53:49.736Z,1.10
2023-04-30T17:56:38.600Z,1.20
2023-04-30T18:02:19.264Z,1.70
2023-04-30T18:05:09.886Z,1.50
2023-04-30T18:07:59.643Z,1.40
2023-04-30T18:10:49.792Z,1.60
2023-04-30T18:13:39.750Z,1.50
2023-04-30T18:16:29.427Z,1.00
2023-04-30T18:19:18.464Z,1.70
2023-04-30T18:22:07.638Z,1.80
2023-04-30T18:24:47.738Z,2.20
2023-04-30T18:27:37.573Z,1.90
2023-04-30T18:30:31.139Z,1.80
2023-04-30T18:33:20.857Z,1.80
2023-04-30T18:36:11.758Z,2.10
2023-04-30T18:39:00.829Z,2.00
2023-04-30T18:41:54.275Z,1.60
2023-04-30T18:44:47.522Z,2.20
2023-04-30T18:47:37.182Z,1.90
2023-04-30T18:50:27.818Z,2.60
2023-04-30T18:53:17.594Z,2.80
2023-04-30T18:56:07.549Z,2.70
2023-04-30T18:58:57.555Z,2.50
2023-04-30T19:01:46.828Z,2.50
2023-04-30T19:04:37.523Z,2.30
2023-04-30T19:07:28.264Z,2.50
2023-04-30T19:10:18.315Z,2.10
2023-04-30T19:13:08.131Z,1.90
2023-04-30T19:16:00.049Z,2.20
2023-04-30T19:18:49.288Z,2.00
2023-04-30T19:24:29.227Z,1.60
2023-04-30T19:27:18.431Z,2.40
2023-04-30T19:30:10.559Z,2.20
2023-04-30T19:32:59.379Z,1.70
2023-04-30T19:35:49.548Z,2.20
2023-04-30T19:38:38.601Z,1.90
2023-04-30T19:44:19.378Z,1.50
2023-04-30T19:47:08.516Z,1.80
2023-04-30T19:49:58.886Z,1.80
2023-04-30T19:52:48.081Z,2.40
2023-04-30T19:55:37.194Z,2.70
2023-04-30T20:01:14.533Z,2.10
2023-04-30T20:04:07.501Z,2.40
2023-04-30T20:06:57.835Z,2.30
2023-04-30T20:09:47.509Z,2.10
2023-04-30T20:12:38.147Z,2.50
2023-04-30T20:15:27.569Z,2.90
2023-04-30T20:18:16.676Z,3.00
2023-04-30T20:21:06.528Z,3.00
2023-04-30T20:23:55.423Z,2.90
2023-04-30T20:26:45.051Z,3.20
2023-04-30T20:29:35.548Z,3.10
2023-04-30T20:32:27.269Z,3.20
2023-04-30T20:35:16.188Z,4.40
2023-04-30T20:38:07.878Z,4.40
2023-04-30T20:40:53.451Z,4.90
2023-04-30T20:43:42.422Z,4.50
2023-04-30T20:46:31.986Z,4.40
2023-04-30T20:49:21.198Z,4.60
2023-04-30T20:52:11.634Z,4.70
2023-04-30T20:55:01.047Z,4.40
2023-04-30T20:57:49.999Z,5.10
2023-04-30T21:03:32.308Z,3.80
2023-04-30T21:06:20.008Z,5.40
2023-04-30T21:11:58.038Z,5.60
2023-04-30T21:14:47.144Z,7.70
2023-04-30T21:17:36.353Z,5.90
2023-04-30T21:20:26.658Z,8.20
2023-04-30T21:23:15.695Z,7.20
2023-04-30T21:26:04.978Z,7.30
2023-04-30T21:31:50.675Z,5.50
2023-04-30T21:34:39.650Z,6.70
2023-04-30T21:40:16.958Z,6.60
2023-04-30T21:43:06.696Z,7.90
2023-04-30T21:46:02.345Z,6.70
2023-04-30T21:48:52.714Z,6.40
2023-04-30T21:51:41.914Z,6.80
2023-04-30T21:54:31.146Z,7.30
2023-04-30T21:57:21.629Z,7.10
2023-04-30T22:00:13.891Z,7.50
2023-04-30T22:03:03.483Z,7.00
2023-04-30T22:05:55.316Z,7.00
2023-04-30T22:08:44.061Z,7.20
2023-04-30T22:14:25.178Z,6.20
2023-04-30T22:17:14.025Z,7.10
2023-04-30T22:20:09.309Z,7.90
2023-04-30T22:22:58.397Z,8.60
2023-04-30T22:25:47.786Z,8.80
2023-04-30T22:28:37.454Z,8.50
2023-04-30T22:31:28.692Z,8.20
2023-04-30T22:34:19.071Z,8.20
2023-04-30T22:37:09.984Z,6.90
2023-04-30T22:40:02.929Z,7.50
2023-04-30T22:42:54.014Z,7.40
2023-04-30T22:45:43.674Z,6.40
2023-04-30T22:48:32.994Z,7.00
2023-04-30T22:51:23.026Z,4.60
2023-04-30T22:54:12.667Z,4.70
2023-04-30T22:57:02.504Z,3.50
2023-04-30T23:00:02.399Z,4.30
2023-04-30T23:02:51.811Z,3.80
2023-04-30T23:05:41.173Z,4.10
2023-04-30T23:08:30.644Z,3.00
2023-04-30T23:11:20.965Z,2.10
2023-04-30T23:14:10.978Z,2.70
2023-04-30T23:17:00.922Z,2.10
2023-04-30T23:19:50.692Z,1.20
2023-04-30T23:22:39.782Z,1.90
2023-04-30T23:25:28.831Z,2.20
2023-04-30T23:31:06.127Z,1.20
2023-04-30T23:33:55.304Z,1.40
2023-04-30T23:36:45.457Z,1.90
2023-04-30T23:42:22.679Z,1.60
2023-04-30T23:45:12.177Z,1.60
2023-04-30T23:48:01.241Z,2.00
2023-04-30T23:51:00.013Z,2.00
2023-04-30T23:53:49.452Z,1.80
2023-04-30T23:56:41.697Z,2.00
2023-04-30T23:59:30.559Z,2.00
